sensor_id;sensor_type;location;lat;lon;timestamp;P1;durP1;ratioP1;P2;durP2;ratioP2
13520;SDS011;6832;51.186;3.236;2023-04-15T00:02:13;26.77;;;6.00;;
13520;SDS011;6832;51.186;3.236;2023-04-15T00:04:47;21.47;;;5.80;;
13520;SDS011;6832;51.186;3.236;2023-04-15T00:07:18;22.43;;;5.70;;
13520;SDS011;6832;51.186;3.236;2023-04-15T00:09:56;29.03;;;6.53;;
13520;SDS011;6832;51.186;3.236;2023-04-15T00:12:23;23.10;;;5.40;;
13520;SDS011;6832;51.186;3.236;2023-04-15T00:14:50;33.97;;;6.53;;
13520;SDS011;6832;51.186;3.236;2023-04-15T00:17:31;29.80;;;6.30;;
13520;SDS011;6832;51.186;3.236;2023-04-15T00:19:59;26.30;;;6.03;;
13520;SDS011;6832;51.186;3.236;2023-04-15T00:22:33;17.63;;;5.50;;
13520;SDS011;6832;51.186;3.236;2023-04-15T00:25:18;25.20;;;5.63;;
13520;SDS011;6832;51.186;3.236;2023-04-15T00:27:49;19.40;;;5.13;;
13520;SDS011;6832;51.186;3.236;2023-04-15T00:30:18;19.80;;;5.23;;
13520;SDS011;6832;51.186;3.236;2023-04-15T00:32:51;15.27;;;5.03;;
13520;SDS011;6832;51.186;3.236;2023-04-15T00:35:18;19.30;;;5.03;;
13520;SDS011;6832;51.186;3.236;2023-04-15T00:37:46;14.40;;;5.07;;
13520;SDS011;6832;51.186;3.236;2023-04-15T00:40:29;29.60;;;6.43;;
13520;SDS011;6832;51.186;3.236;2023-04-15T00:42:56;25.07;;;5.53;;
13520;SDS011;6832;51.186;3.236;2023-04-15T00:45:25;22.50;;;5.60;;
13520;SDS011;6832;51.186;3.236;2023-04-15T00:47:52;22.47;;;5.60;;
13520;SDS011;6832;51.186;3.236;2023-04-15T00:50:20;26.30;;;6.17;;
13520;SDS011;6832;51.186;3.236;2023-04-15T00:52:47;22.33;;;5.93;;
13520;SDS011;6832;51.186;3.236;2023-04-15T00:55:14;22.53;;;5.37;;
13520;SDS011;6832;51.186;3.236;2023-04-15T00:57:43;24.37;;;5.93;;
13520;SDS011;6832;51.186;3.236;2023-04-15T01:00:11;17.03;;;5.50;;
13520;SDS011;6832;51.186;3.236;2023-04-15T01:02:45;22.23;;;5.63;;
13520;SDS011;6832;51.186;3.236;2023-04-15T01:05:15;19.23;;;5.10;;
13520;SDS011;6832;51.186;3.236;2023-04-15T01:10:23;27.00;;;5.87;;
13520;SDS011;6832;51.186;3.236;2023-04-15T01:13:01;24.10;;;5.97;;
13520;SDS011;6832;51.186;3.236;2023-04-15T01:15:54;8.30;;;4.60;;
13520;SDS011;6832;51.186;3.236;2023-04-15T01:18:23;9.73;;;4.37;;
13520;SDS011;6832;51.186;3.236;2023-04-15T01:20:52;19.27;;;5.00;;
13520;SDS011;6832;51.186;3.236;2023-04-15T01:23:19;29.67;;;5.93;;
13520;SDS011;6832;51.186;3.236;2023-04-15T01:25:53;13.13;;;4.87;;
13520;SDS011;6832;51.186;3.236;2023-04-15T01:28:25;9.37;;;3.97;;
13520;SDS011;6832;51.186;3.236;2023-04-15T01:31:04;16.30;;;5.10;;
13520;SDS011;6832;51.186;3.236;2023-04-15T01:33:37;16.73;;;5.03;;
13520;SDS011;6832;51.186;3.236;2023-04-15T01:36:06;21.37;;;5.47;;
13520;SDS011;6832;51.186;3.236;2023-04-15T01:38:39;17.33;;;5.13;;
13520;SDS011;6832;51.186;3.236;2023-04-15T01:41:15;11.63;;;5.00;;
13520;SDS011;6832;51.186;3.236;2023-04-15T01:43:46;19.67;;;5.03;;
13520;SDS011;6832;51.186;3.236;2023-04-15T01:46:18;12.50;;;4.57;;
13520;SDS011;6832;51.186;3.236;2023-04-15T01:48:45;22.03;;;5.43;;
13520;SDS011;6832;51.186;3.236;2023-04-15T01:51:13;17.43;;;4.90;;
13520;SDS011;6832;51.186;3.236;2023-04-15T01:53:42;16.70;;;5.10;;
13520;SDS011;6832;51.186;3.236;2023-04-15T01:56:09;17.93;;;5.67;;
13520;SDS011;6832;51.186;3.236;2023-04-15T01:58:40;18.47;;;5.20;;
13520;SDS011;6832;51.186;3.236;2023-04-15T02:01:08;17.53;;;5.10;;
13520;SDS011;6832;51.186;3.236;2023-04-15T02:03:39;21.20;;;5.40;;
13520;SDS011;6832;51.186;3.236;2023-04-15T02:06:14;18.07;;;5.07;;
13520;SDS011;6832;51.186;3.236;2023-04-15T02:08:44;32.47;;;6.53;;
13520;SDS011;6832;51.186;3.236;2023-04-15T02:13:46;15.67;;;5.00;;
13520;SDS011;6832;51.186;3.236;2023-04-15T02:16:16;18.80;;;5.50;;
13520;SDS011;6832;51.186;3.236;2023-04-15T02:18:44;19.80;;;5.20;;
13520;SDS011;6832;51.186;3.236;2023-04-15T02:21:11;15.73;;;5.10;;
13520;SDS011;6832;51.186;3.236;2023-04-15T02:23:44;29.73;;;5.93;;
13520;SDS011;6832;51.186;3.236;2023-04-15T02:26:17;17.00;;;5.40;;
13520;SDS011;6832;51.186;3.236;2023-04-15T02:29:01;27.83;;;5.97;;
13520;SDS011;6832;51.186;3.236;2023-04-15T02:31:28;32.43;;;6.67;;
13520;SDS011;6832;51.186;3.236;2023-04-15T02:34:00;26.23;;;5.57;;
13520;SDS011;6832;51.186;3.236;2023-04-15T02:36:28;19.03;;;5.37;;
13520;SDS011;6832;51.186;3.236;2023-04-15T02:39:04;25.23;;;5.33;;
13520;SDS011;6832;51.186;3.236;2023-04-15T02:41:31;19.17;;;5.07;;
13520;SDS011;6832;51.186;3.236;2023-04-15T02:43:58;25.87;;;5.83;;
13520;SDS011;6832;51.186;3.236;2023-04-15T02:46:27;20.07;;;4.93;;
13520;SDS011;6832;51.186;3.236;2023-04-15T02:48:54;32.17;;;5.80;;
13520;SDS011;6832;51.186;3.236;2023-04-15T02:51:24;30.57;;;5.87;;
13520;SDS011;6832;51.186;3.236;2023-04-15T02:53:55;21.30;;;5.50;;
13520;SDS011;6832;51.186;3.236;2023-04-15T02:56:22;16.37;;;4.97;;
13520;SDS011;6832;51.186;3.236;2023-04-15T02:58:50;18.50;;;5.67;;
13520;SDS011;6832;51.186;3.236;2023-04-15T03:01:26;20.47;;;5.53;;
13520;SDS011;6832;51.186;3.236;2023-04-15T03:04:04;15.73;;;4.73;;
13520;SDS011;6832;51.186;3.236;2023-04-15T03:09:13;16.67;;;4.70;;
13520;SDS011;6832;51.186;3.236;2023-04-15T03:11:41;13.00;;;4.53;;
13520;SDS011;6832;51.186;3.236;2023-04-15T03:14:11;15.73;;;4.87;;
13520;SDS011;6832;51.186;3.236;2023-04-15T03:16:47;15.40;;;4.63;;
13520;SDS011;6832;51.186;3.236;2023-04-15T03:19:19;15.63;;;4.43;;
13520;SDS011;6832;51.186;3.236;2023-04-15T03:21:47;10.53;;;4.33;;
13520;SDS011;6832;51.186;3.236;2023-04-15T03:24:17;10.73;;;4.13;;
13520;SDS011;6832;51.186;3.236;2023-04-15T03:26:54;13.07;;;4.40;;
13520;SDS011;6832;51.186;3.236;2023-04-15T03:29:32;14.80;;;4.77;;
13520;SDS011;6832;51.186;3.236;2023-04-15T03:32:04;17.70;;;4.63;;
13520;SDS011;6832;51.186;3.236;2023-04-15T03:34:37;22.70;;;5.43;;
13520;SDS011;6832;51.186;3.236;2023-04-15T03:37:04;13.57;;;4.17;;
13520;SDS011;6832;51.186;3.236;2023-04-15T03:39:40;12.23;;;4.40;;
13520;SDS011;6832;51.186;3.236;2023-04-15T03:42:10;11.50;;;4.20;;
13520;SDS011;6832;51.186;3.236;2023-04-15T03:44:43;20.67;;;5.13;;
13520;SDS011;6832;51.186;3.236;2023-04-15T03:47:13;16.27;;;4.60;;
13520;SDS011;6832;51.186;3.236;2023-04-15T03:49:42;21.87;;;5.13;;
13520;SDS011;6832;51.186;3.236;2023-04-15T03:52:15;16.60;;;4.97;;
13520;SDS011;6832;51.186;3.236;2023-04-15T03:54:45;17.30;;;5.30;;
13520;SDS011;6832;51.186;3.236;2023-04-15T03:57:23;17.53;;;5.23;;
13520;SDS011;6832;51.186;3.236;2023-04-15T04:00:01;11.23;;;4.70;;
13520;SDS011;6832;51.186;3.236;2023-04-15T04:02:30;7.43;;;4.27;;
13520;SDS011;6832;51.186;3.236;2023-04-15T04:07:49;16.93;;;5.17;;
13520;SDS011;6832;51.186;3.236;2023-04-15T04:10:20;14.93;;;5.20;;
13520;SDS011;6832;51.186;3.236;2023-04-15T04:12:49;16.43;;;5.33;;
13520;SDS011;6832;51.186;3.236;2023-04-15T04:15:23;12.37;;;4.60;;
13520;SDS011;6832;51.186;3.236;2023-04-15T04:18:16;12.30;;;4.23;;
13520;SDS011;6832;51.186;3.236;2023-04-15T04:20:52;13.63;;;4.47;;
13520;SDS011;6832;51.186;3.236;2023-04-15T04:23:20;15.80;;;5.50;;
13520;SDS011;6832;51.186;3.236;2023-04-15T04:25:49;26.57;;;6.00;;
13520;SDS011;6832;51.186;3.236;2023-04-15T04:28:16;16.10;;;5.10;;
13520;SDS011;6832;51.186;3.236;2023-04-15T04:30:43;27.97;;;5.83;;
13520;SDS011;6832;51.186;3.236;2023-04-15T04:33:15;14.40;;;4.80;;
13520;SDS011;6832;51.186;3.236;2023-04-15T04:35:43;16.17;;;4.93;;
13520;SDS011;6832;51.186;3.236;2023-04-15T04:38:12;17.90;;;5.40;;
13520;SDS011;6832;51.186;3.236;2023-04-15T04:40:39;15.07;;;4.63;;
13520;SDS011;6832;51.186;3.236;2023-04-15T04:43:06;18.13;;;5.33;;
13520;SDS011;6832;51.186;3.236;2023-04-15T04:48:04;14.97;;;5.37;;
13520;SDS011;6832;51.186;3.236;2023-04-15T04:50:34;18.80;;;5.67;;
13520;SDS011;6832;51.186;3.236;2023-04-15T04:53:01;14.20;;;5.20;;
13520;SDS011;6832;51.186;3.236;2023-04-15T04:58:01;32.13;;;7.17;;
13520;SDS011;6832;51.186;3.236;2023-04-15T05:00:31;20.13;;;6.50;;
13520;SDS011;6832;51.186;3.236;2023-04-15T05:03:01;24.80;;;6.63;;
13520;SDS011;6832;51.186;3.236;2023-04-15T05:05:29;19.43;;;6.37;;
13520;SDS011;6832;51.186;3.236;2023-04-15T05:07:58;19.07;;;6.47;;
13520;SDS011;6832;51.186;3.236;2023-04-15T05:10:25;22.70;;;6.07;;
13520;SDS011;6832;51.186;3.236;2023-04-15T05:12:55;18.53;;;5.77;;
13520;SDS011;6832;51.186;3.236;2023-04-15T05:17:52;23.90;;;6.50;;
13520;SDS011;6832;51.186;3.236;2023-04-15T05:20:30;18.47;;;6.07;;
13520;SDS011;6832;51.186;3.236;2023-04-15T05:22:58;16.33;;;6.13;;
13520;SDS011;6832;51.186;3.236;2023-04-15T05:25:25;18.80;;;5.73;;
13520;SDS011;6832;51.186;3.236;2023-04-15T05:27:53;21.00;;;6.50;;
13520;SDS011;6832;51.186;3.236;2023-04-15T05:30:22;15.97;;;6.13;;
13520;SDS011;6832;51.186;3.236;2023-04-15T05:32:51;23.70;;;6.67;;
13520;SDS011;6832;51.186;3.236;2023-04-15T05:35:18;31.87;;;7.73;;
13520;SDS011;6832;51.186;3.236;2023-04-15T05:37:46;30.67;;;7.27;;
13520;SDS011;6832;51.186;3.236;2023-04-15T05:40:15;24.90;;;6.97;;
13520;SDS011;6832;51.186;3.236;2023-04-15T05:42:43;23.10;;;6.73;;
13520;SDS011;6832;51.186;3.236;2023-04-15T05:45:10;26.63;;;7.03;;
13520;SDS011;6832;51.186;3.236;2023-04-15T05:47:37;20.23;;;6.43;;
13520;SDS011;6832;51.186;3.236;2023-04-15T05:50:06;19.77;;;6.70;;
13520;SDS011;6832;51.186;3.236;2023-04-15T05:52:33;16.27;;;6.60;;
13520;SDS011;6832;51.186;3.236;2023-04-15T05:55:01;30.07;;;7.20;;
13520;SDS011;6832;51.186;3.236;2023-04-15T05:57:29;25.57;;;7.13;;
13520;SDS011;6832;51.186;3.236;2023-04-15T05:59:56;26.93;;;7.43;;
13520;SDS011;6832;51.186;3.236;2023-04-15T06:02:23;26.63;;;7.40;;
13520;SDS011;6832;51.186;3.236;2023-04-15T06:04:51;32.17;;;7.40;;
13520;SDS011;6832;51.186;3.236;2023-04-15T06:07:20;20.17;;;6.60;;
13520;SDS011;6832;51.186;3.236;2023-04-15T06:09:47;23.33;;;7.03;;
13520;SDS011;6832;51.186;3.236;2023-04-15T06:12:15;23.03;;;7.20;;
13520;SDS011;6832;51.186;3.236;2023-04-15T06:14:46;26.20;;;6.93;;
13520;SDS011;6832;51.186;3.236;2023-04-15T06:17:13;25.50;;;7.20;;
13520;SDS011;6832;51.186;3.236;2023-04-15T06:19:42;26.20;;;6.50;;
13520;SDS011;6832;51.186;3.236;2023-04-15T06:22:11;23.47;;;6.37;;
13520;SDS011;6832;51.186;3.236;2023-04-15T06:24:38;19.97;;;6.37;;
13520;SDS011;6832;51.186;3.236;2023-04-15T06:27:05;36.00;;;7.53;;
13520;SDS011;6832;51.186;3.236;2023-04-15T06:29:34;18.93;;;6.50;;
13520;SDS011;6832;51.186;3.236;2023-04-15T06:32:05;26.33;;;6.90;;
13520;SDS011;6832;51.186;3.236;2023-04-15T06:34:32;19.80;;;6.23;;
13520;SDS011;6832;51.186;3.236;2023-04-15T06:37:01;27.97;;;6.67;;
13520;SDS011;6832;51.186;3.236;2023-04-15T06:39:29;30.30;;;6.97;;
13520;SDS011;6832;51.186;3.236;2023-04-15T06:41:56;27.43;;;6.37;;
13520;SDS011;6832;51.186;3.236;2023-04-15T06:44:23;25.57;;;5.97;;
13520;SDS011;6832;51.186;3.236;2023-04-15T06:46:51;20.37;;;5.67;;
13520;SDS011;6832;51.186;3.236;2023-04-15T06:49:19;23.80;;;6.53;;
13520;SDS011;6832;51.186;3.236;2023-04-15T06:51:49;17.93;;;5.30;;
13520;SDS011;6832;51.186;3.236;2023-04-15T06:54:16;23.00;;;6.13;;
13520;SDS011;6832;51.186;3.236;2023-04-15T06:56:44;25.47;;;6.37;;
13520;SDS011;6832;51.186;3.236;2023-04-15T06:59:12;25.10;;;6.07;;
13520;SDS011;6832;51.186;3.236;2023-04-15T07:01:39;26.90;;;6.10;;
13520;SDS011;6832;51.186;3.236;2023-04-15T07:04:07;24.03;;;6.67;;
13520;SDS011;6832;51.186;3.236;2023-04-15T07:06:36;21.43;;;6.07;;
13520;SDS011;6832;51.186;3.236;2023-04-15T07:09:03;19.33;;;6.00;;
13520;SDS011;6832;51.186;3.236;2023-04-15T07:11:30;23.33;;;6.17;;
13520;SDS011;6832;51.186;3.236;2023-04-15T07:13:57;25.50;;;6.23;;
13520;SDS011;6832;51.186;3.236;2023-04-15T07:16:26;29.33;;;6.60;;
13520;SDS011;6832;51.186;3.236;2023-04-15T07:18:53;32.00;;;7.00;;
13520;SDS011;6832;51.186;3.236;2023-04-15T07:21:22;22.67;;;5.87;;
13520;SDS011;6832;51.186;3.236;2023-04-15T07:23:51;29.20;;;6.10;;
13520;SDS011;6832;51.186;3.236;2023-04-15T07:26:19;23.57;;;6.00;;
13520;SDS011;6832;51.186;3.236;2023-04-15T07:28:47;30.17;;;6.50;;
13520;SDS011;6832;51.186;3.236;2023-04-15T07:31:16;24.93;;;6.37;;
13520;SDS011;6832;51.186;3.236;2023-04-15T07:33:46;20.83;;;5.17;;
13520;SDS011;6832;51.186;3.236;2023-04-15T07:36:14;20.60;;;5.60;;
13520;SDS011;6832;51.186;3.236;2023-04-15T07:38:41;22.60;;;5.80;;
13520;SDS011;6832;51.186;3.236;2023-04-15T07:41:10;28.03;;;6.03;;
13520;SDS011;6832;51.186;3.236;2023-04-15T07:43:37;20.67;;;5.30;;
13520;SDS011;6832;51.186;3.236;2023-04-15T07:46:04;18.33;;;5.20;;
13520;SDS011;6832;51.186;3.236;2023-04-15T07:48:31;18.77;;;5.57;;
13520;SDS011;6832;51.186;3.236;2023-04-15T07:50:58;26.90;;;5.77;;
13520;SDS011;6832;51.186;3.236;2023-04-15T07:53:28;21.53;;;5.53;;
13520;SDS011;6832;51.186;3.236;2023-04-15T07:55:57;24.87;;;6.10;;
13520;SDS011;6832;51.186;3.236;2023-04-15T07:58:26;26.03;;;6.07;;
13520;SDS011;6832;51.186;3.236;2023-04-15T08:00:55;24.37;;;5.57;;
13520;SDS011;6832;51.186;3.236;2023-04-15T08:03:23;20.43;;;5.73;;
13520;SDS011;6832;51.186;3.236;2023-04-15T08:05:52;23.23;;;5.57;;
13520;SDS011;6832;51.186;3.236;2023-04-15T08:08:20;19.83;;;5.57;;
13520;SDS011;6832;51.186;3.236;2023-04-15T08:10:47;28.83;;;6.57;;
13520;SDS011;6832;51.186;3.236;2023-04-15T08:13:17;25.23;;;6.57;;
13520;SDS011;6832;51.186;3.236;2023-04-15T08:15:55;21.17;;;6.07;;
13520;SDS011;6832;51.186;3.236;2023-04-15T08:18:40;25.07;;;6.43;;
13520;SDS011;6832;51.186;3.236;2023-04-15T08:21:07;33.77;;;7.27;;
13520;SDS011;6832;51.186;3.236;2023-04-15T08:23:34;26.07;;;7.07;;
13520;SDS011;6832;51.186;3.236;2023-04-15T08:26:01;20.67;;;6.23;;
13520;SDS011;6832;51.186;3.236;2023-04-15T08:28:29;23.37;;;6.80;;
13520;SDS011;6832;51.186;3.236;2023-04-15T08:31:07;28.87;;;7.40;;
13520;SDS011;6832;51.186;3.236;2023-04-15T08:33:35;29.27;;;7.60;;
13520;SDS011;6832;51.186;3.236;2023-04-15T08:36:02;19.40;;;6.67;;
13520;SDS011;6832;51.186;3.236;2023-04-15T08:38:30;24.63;;;7.00;;
13520;SDS011;6832;51.186;3.236;2023-04-15T08:40:57;26.30;;;7.33;;
13520;SDS011;6832;51.186;3.236;2023-04-15T08:43:32;23.10;;;7.23;;
13520;SDS011;6832;51.186;3.236;2023-04-15T08:46:02;18.43;;;7.03;;
13520;SDS011;6832;51.186;3.236;2023-04-15T08:48:40;27.43;;;7.87;;
13520;SDS011;6832;51.186;3.236;2023-04-15T08:51:09;29.10;;;8.17;;
13520;SDS011;6832;51.186;3.236;2023-04-15T08:53:40;23.40;;;7.33;;
13520;SDS011;6832;51.186;3.236;2023-04-15T08:56:08;23.87;;;7.77;;
13520;SDS011;6832;51.186;3.236;2023-04-15T08:58:39;29.13;;;8.60;;
13520;SDS011;6832;51.186;3.236;2023-04-15T09:01:07;21.00;;;7.40;;
13520;SDS011;6832;51.186;3.236;2023-04-15T09:03:38;17.87;;;7.13;;
13520;SDS011;6832;51.186;3.236;2023-04-15T09:06:05;22.37;;;7.17;;
13520;SDS011;6832;51.186;3.236;2023-04-15T09:08:34;30.20;;;8.23;;
13520;SDS011;6832;51.186;3.236;2023-04-15T09:11:04;22.47;;;8.40;;
13520;SDS011;6832;51.186;3.236;2023-04-15T09:13:31;18.33;;;6.83;;
13520;SDS011;6832;51.186;3.236;2023-04-15T09:16:01;15.97;;;8.23;;
13520;SDS011;6832;51.186;3.236;2023-04-15T09:18:31;18.40;;;7.57;;
13520;SDS011;6832;51.186;3.236;2023-04-15T09:21:19;16.63;;;8.00;;
13520;SDS011;6832;51.186;3.236;2023-04-15T09:23:58;23.03;;;7.40;;
13520;SDS011;6832;51.186;3.236;2023-04-15T09:26:29;15.57;;;7.30;;
13520;SDS011;6832;51.186;3.236;2023-04-15T09:29:07;16.77;;;7.33;;
13520;SDS011;6832;51.186;3.236;2023-04-15T09:31:38;34.87;;;8.47;;
13520;SDS011;6832;51.186;3.236;2023-04-15T09:34:09;14.93;;;7.20;;
13520;SDS011;6832;51.186;3.236;2023-04-15T09:36:56;25.40;;;7.53;;
13520;SDS011;6832;51.186;3.236;2023-04-15T09:39:25;16.97;;;7.67;;
13520;SDS011;6832;51.186;3.236;2023-04-15T09:44:37;22.67;;;7.80;;
13520;SDS011;6832;51.186;3.236;2023-04-15T09:47:07;23.47;;;7.93;;
13520;SDS011;6832;51.186;3.236;2023-04-15T09:49:54;27.87;;;8.70;;
13520;SDS011;6832;51.186;3.236;2023-04-15T09:52:26;37.87;;;9.90;;
13520;SDS011;6832;51.186;3.236;2023-04-15T09:54:53;27.13;;;8.73;;
13520;SDS011;6832;51.186;3.236;2023-04-15T09:57:33;36.63;;;8.87;;
13520;SDS011;6832;51.186;3.236;2023-04-15T10:00:01;22.90;;;8.13;;
13520;SDS011;6832;51.186;3.236;2023-04-15T10:02:31;33.93;;;8.10;;
13520;SDS011;6832;51.186;3.236;2023-04-15T10:04:59;19.13;;;7.43;;
13520;SDS011;6832;51.186;3.236;2023-04-15T10:07:29;26.77;;;8.73;;
13520;SDS011;6832;51.186;3.236;2023-04-15T10:09:57;27.60;;;8.33;;
13520;SDS011;6832;51.186;3.236;2023-04-15T10:12:26;28.93;;;9.03;;
13520;SDS011;6832;51.186;3.236;2023-04-15T10:14:55;31.93;;;9.00;;
13520;SDS011;6832;51.186;3.236;2023-04-15T10:17:25;26.63;;;8.33;;
13520;SDS011;6832;51.186;3.236;2023-04-15T10:19:55;26.53;;;8.70;;
13520;SDS011;6832;51.186;3.236;2023-04-15T10:22:22;30.67;;;8.80;;
13520;SDS011;6832;51.186;3.236;2023-04-15T10:24:53;29.37;;;7.93;;
13520;SDS011;6832;51.186;3.236;2023-04-15T10:27:21;24.10;;;7.73;;
13520;SDS011;6832;51.186;3.236;2023-04-15T10:29:49;45.30;;;9.87;;
13520;SDS011;6832;51.186;3.236;2023-04-15T10:32:16;36.63;;;9.23;;
13520;SDS011;6832;51.186;3.236;2023-04-15T10:34:46;39.80;;;9.10;;
13520;SDS011;6832;51.186;3.236;2023-04-15T10:37:19;28.17;;;7.80;;
13520;SDS011;6832;51.186;3.236;2023-04-15T10:39:46;31.30;;;8.37;;
13520;SDS011;6832;51.186;3.236;2023-04-15T10:42:22;36.10;;;9.23;;
13520;SDS011;6832;51.186;3.236;2023-04-15T10:44:50;24.10;;;7.67;;
13520;SDS011;6832;51.186;3.236;2023-04-15T10:47:21;36.53;;;8.70;;
13520;SDS011;6832;51.186;3.236;2023-04-15T10:49:50;31.13;;;8.73;;
13520;SDS011;6832;51.186;3.236;2023-04-15T10:52:21;27.90;;;8.23;;
13520;SDS011;6832;51.186;3.236;2023-04-15T10:54:50;38.63;;;9.80;;
13520;SDS011;6832;51.186;3.236;2023-04-15T10:57:40;22.97;;;8.20;;
13520;SDS011;6832;51.186;3.236;2023-04-15T11:00:09;25.27;;;9.17;;
13520;SDS011;6832;51.186;3.236;2023-04-15T11:02:39;28.43;;;8.80;;
13520;SDS011;6832;51.186;3.236;2023-04-15T11:05:10;31.77;;;9.03;;
13520;SDS011;6832;51.186;3.236;2023-04-15T11:07:39;28.07;;;8.27;;
13520;SDS011;6832;51.186;3.236;2023-04-15T11:13:18;32.57;;;7.83;;
13520;SDS011;6832;51.186;3.236;2023-04-15T11:15:47;25.23;;;8.33;;
13520;SDS011;6832;51.186;3.236;2023-04-15T11:18:17;20.67;;;8.00;;
13520;SDS011;6832;51.186;3.236;2023-04-15T11:20:47;21.67;;;8.17;;
13520;SDS011;6832;51.186;3.236;2023-04-15T11:23:16;18.53;;;7.57;;
13520;SDS011;6832;51.186;3.236;2023-04-15T11:25:45;23.43;;;7.93;;
13520;SDS011;6832;51.186;3.236;2023-04-15T11:28:18;31.20;;;11.07;;
13520;SDS011;6832;51.186;3.236;2023-04-15T11:30:51;26.83;;;9.10;;
13520;SDS011;6832;51.186;3.236;2023-04-15T11:33:20;25.87;;;9.27;;
13520;SDS011;6832;51.186;3.236;2023-04-15T11:35:47;30.10;;;8.47;;
13520;SDS011;6832;51.186;3.236;2023-04-15T11:38:14;30.43;;;9.30;;
13520;SDS011;6832;51.186;3.236;2023-04-15T11:40:44;29.27;;;9.33;;
13520;SDS011;6832;51.186;3.236;2023-04-15T11:43:19;33.03;;;9.40;;
13520;SDS011;6832;51.186;3.236;2023-04-15T11:45:47;41.97;;;11.37;;
13520;SDS011;6832;51.186;3.236;2023-04-15T11:48:17;49.80;;;11.33;;
13520;SDS011;6832;51.186;3.236;2023-04-15T11:50:44;27.47;;;10.67;;
13520;SDS011;6832;51.186;3.236;2023-04-15T11:53:12;34.57;;;10.17;;
13520;SDS011;6832;51.186;3.236;2023-04-15T11:55:44;31.23;;;10.40;;
13520;SDS011;6832;51.186;3.236;2023-04-15T11:58:18;33.13;;;10.50;;
13520;SDS011;6832;51.186;3.236;2023-04-15T12:00:49;33.10;;;10.30;;
13520;SDS011;6832;51.186;3.236;2023-04-15T12:03:20;25.73;;;9.43;;
13520;SDS011;6832;51.186;3.236;2023-04-15T12:06:08;27.27;;;8.93;;
13520;SDS011;6832;51.186;3.236;2023-04-15T12:09:03;15.77;;;7.93;;
13520;SDS011;6832;51.186;3.236;2023-04-15T12:11:42;23.30;;;8.03;;
13520;SDS011;6832;51.186;3.236;2023-04-15T12:14:20;33.67;;;9.10;;
13520;SDS011;6832;51.186;3.236;2023-04-15T12:16:54;33.93;;;9.73;;
13520;SDS011;6832;51.186;3.236;2023-04-15T12:19:27;12.40;;;8.43;;
13520;SDS011;6832;51.186;3.236;2023-04-15T12:21:56;24.23;;;8.57;;
13520;SDS011;6832;51.186;3.236;2023-04-15T12:24:34;19.57;;;8.90;;
13520;SDS011;6832;51.186;3.236;2023-04-15T12:27:02;27.63;;;8.63;;
13520;SDS011;6832;51.186;3.236;2023-04-15T12:29:39;20.23;;;8.23;;
13520;SDS011;6832;51.186;3.236;2023-04-15T12:32:09;39.43;;;9.33;;
13520;SDS011;6832;51.186;3.236;2023-04-15T12:34:38;23.17;;;7.57;;
13520;SDS011;6832;51.186;3.236;2023-04-15T12:37:16;32.50;;;8.87;;
13520;SDS011;6832;51.186;3.236;2023-04-15T12:39:45;19.23;;;8.17;;
13520;SDS011;6832;51.186;3.236;2023-04-15T12:42:15;19.97;;;8.63;;
13520;SDS011;6832;51.186;3.236;2023-04-15T12:44:45;22.13;;;8.23;;
13520;SDS011;6832;51.186;3.236;2023-04-15T12:47:12;31.10;;;8.77;;
13520;SDS011;6832;51.186;3.236;2023-04-15T12:49:41;24.30;;;8.50;;
13520;SDS011;6832;51.186;3.236;2023-04-15T12:52:08;29.80;;;9.07;;
13520;SDS011;6832;51.186;3.236;2023-04-15T12:54:35;25.17;;;8.57;;
13520;SDS011;6832;51.186;3.236;2023-04-15T12:57:02;19.87;;;8.00;;
13520;SDS011;6832;51.186;3.236;2023-04-15T12:59:30;22.00;;;7.57;;
13520;SDS011;6832;51.186;3.236;2023-04-15T13:01:59;42.30;;;10.40;;
13520;SDS011;6832;51.186;3.236;2023-04-15T13:04:26;25.17;;;8.93;;
13520;SDS011;6832;51.186;3.236;2023-04-15T13:06:54;27.70;;;8.70;;
13520;SDS011;6832;51.186;3.236;2023-04-15T13:09:23;22.33;;;8.17;;
13520;SDS011;6832;51.186;3.236;2023-04-15T13:11:50;20.53;;;7.80;;
13520;SDS011;6832;51.186;3.236;2023-04-15T13:14:18;22.97;;;8.67;;
13520;SDS011;6832;51.186;3.236;2023-04-15T13:16:46;22.57;;;8.50;;
13520;SDS011;6832;51.186;3.236;2023-04-15T13:19:14;23.97;;;8.77;;
13520;SDS011;6832;51.186;3.236;2023-04-15T13:21:42;27.67;;;9.47;;
13520;SDS011;6832;51.186;3.236;2023-04-15T13:24:09;28.10;;;9.03;;
13520;SDS011;6832;51.186;3.236;2023-04-15T13:26:41;35.90;;;10.20;;
13520;SDS011;6832;51.186;3.236;2023-04-15T13:29:08;32.23;;;9.40;;
13520;SDS011;6832;51.186;3.236;2023-04-15T13:31:36;24.87;;;9.00;;
13520;SDS011;6832;51.186;3.236;2023-04-15T13:34:03;34.70;;;9.33;;
13520;SDS011;6832;51.186;3.236;2023-04-15T13:36:31;35.73;;;8.90;;
13520;SDS011;6832;51.186;3.236;2023-04-15T13:39:00;22.40;;;8.10;;
13520;SDS011;6832;51.186;3.236;2023-04-15T13:41:27;23.40;;;7.87;;
13520;SDS011;6832;51.186;3.236;2023-04-15T13:43:54;22.67;;;7.77;;
13520;SDS011;6832;51.186;3.236;2023-04-15T13:46:22;23.37;;;7.77;;
13520;SDS011;6832;51.186;3.236;2023-04-15T13:48:50;27.07;;;8.13;;
13520;SDS011;6832;51.186;3.236;2023-04-15T13:51:17;19.60;;;7.27;;
13520;SDS011;6832;51.186;3.236;2023-04-15T13:53:45;21.53;;;7.60;;
13520;SDS011;6832;51.186;3.236;2023-04-15T13:56:12;26.20;;;7.47;;
13520;SDS011;6832;51.186;3.236;2023-04-15T13:58:39;29.70;;;7.93;;
13520;SDS011;6832;51.186;3.236;2023-04-15T14:01:06;27.97;;;7.40;;
13520;SDS011;6832;51.186;3.236;2023-04-15T14:03:36;40.63;;;8.80;;
13520;SDS011;6832;51.186;3.236;2023-04-15T14:06:03;24.63;;;7.07;;
13520;SDS011;6832;51.186;3.236;2023-04-15T14:08:30;32.07;;;8.20;;
13520;SDS011;6832;51.186;3.236;2023-04-15T14:10:58;29.40;;;7.67;;
13520;SDS011;6832;51.186;3.236;2023-04-15T14:13:25;34.17;;;7.53;;
13520;SDS011;6832;51.186;3.236;2023-04-15T14:15:54;26.23;;;7.27;;
13520;SDS011;6832;51.186;3.236;2023-04-15T14:18:22;25.70;;;7.60;;
13520;SDS011;6832;51.186;3.236;2023-04-15T14:20:49;39.10;;;8.17;;
13520;SDS011;6832;51.186;3.236;2023-04-15T14:23:16;34.93;;;7.53;;
13520;SDS011;6832;51.186;3.236;2023-04-15T14:25:45;21.13;;;6.60;;
13520;SDS011;6832;51.186;3.236;2023-04-15T14:28:16;23.50;;;6.87;;
13520;SDS011;6832;51.186;3.236;2023-04-15T14:30:44;21.30;;;6.47;;
13520;SDS011;6832;51.186;3.236;2023-04-15T14:33:12;20.03;;;6.40;;
13520;SDS011;6832;51.186;3.236;2023-04-15T14:35:39;31.90;;;7.50;;
13520;SDS011;6832;51.186;3.236;2023-04-15T14:38:06;38.20;;;7.40;;
13520;SDS011;6832;51.186;3.236;2023-04-15T14:40:35;28.10;;;6.73;;
13520;SDS011;6832;51.186;3.236;2023-04-15T14:43:07;30.40;;;6.73;;
13520;SDS011;6832;51.186;3.236;2023-04-15T14:45:36;28.00;;;6.60;;
13520;SDS011;6832;51.186;3.236;2023-04-15T14:48:04;27.20;;;6.50;;
13520;SDS011;6832;51.186;3.236;2023-04-15T14:50:34;26.33;;;5.73;;
13520;SDS011;6832;51.186;3.236;2023-04-15T14:53:01;22.40;;;5.77;;
13520;SDS011;6832;51.186;3.236;2023-04-15T14:55:34;30.17;;;6.50;;
13520;SDS011;6832;51.186;3.236;2023-04-15T14:58:01;24.20;;;5.57;;
13520;SDS011;6832;51.186;3.236;2023-04-15T15:00:28;29.30;;;6.10;;
13520;SDS011;6832;51.186;3.236;2023-04-15T15:02:57;36.20;;;6.80;;
13520;SDS011;6832;51.186;3.236;2023-04-15T15:05:24;30.10;;;6.13;;
13520;SDS011;6832;51.186;3.236;2023-04-15T15:07:51;24.63;;;6.10;;
13520;SDS011;6832;51.186;3.236;2023-04-15T15:10:21;28.93;;;6.60;;
13520;SDS011;6832;51.186;3.236;2023-04-15T15:12:48;26.53;;;6.77;;
13520;SDS011;6832;51.186;3.236;2023-04-15T15:15:15;28.43;;;5.93;;
13520;SDS011;6832;51.186;3.236;2023-04-15T15:17:42;21.10;;;5.87;;
13520;SDS011;6832;51.186;3.236;2023-04-15T15:20:10;27.73;;;5.87;;
13520;SDS011;6832;51.186;3.236;2023-04-15T15:22:37;37.57;;;6.57;;
13520;SDS011;6832;51.186;3.236;2023-04-15T15:25:04;23.97;;;5.37;;
13520;SDS011;6832;51.186;3.236;2023-04-15T15:27:31;28.63;;;6.03;;
13520;SDS011;6832;51.186;3.236;2023-04-15T15:29:58;33.80;;;6.27;;